createdAt,value
2022-08-28T00:00:05.632Z,3.53
2022-08-28T00:02:33.795Z,3.13
2022-08-28T00:05:01.649Z,3.10
2022-08-28T00:07:28.056Z,3.33
2022-08-28T00:09:54.357Z,3.30
2022-08-28T00:12:20.693Z,3.00
2022-08-28T00:14:47.036Z,3.70
2022-08-28T00:17:13.336Z,3.40
2022-08-28T00:19:39.717Z,3.40
2022-08-28T00:22:07.313Z,3.60
2022-08-28T00:24:33.872Z,3.30
2022-08-28T00:27:18.871Z,3.30
2022-08-28T00:29:45.174Z,3.43
2022-08-28T00:32:11.489Z,3.20
2022-08-28T00:34:38.804Z,3.17
2022-08-28T00:37:05.556Z,2.80
2022-08-28T00:39:32.257Z,3.10
2022-08-28T00:41:58.828Z,3.10
2022-08-28T00:44:26.746Z,2.63
2022-08-28T00:46:54.471Z,2.70
2022-08-28T00:49:22.708Z,2.60
2022-08-28T00:52:08.157Z,2.57
2022-08-28T00:54:36.840Z,2.43
2022-08-28T00:57:06.633Z,2.37
2022-08-28T00:59:33.235Z,2.33
2022-08-28T01:01:59.730Z,2.30
2022-08-28T01:04:28.050Z,2.20
2022-08-28T01:06:55.753Z,2.00
2022-08-28T01:09:23.445Z,2.07
2022-08-28T01:11:51.271Z,2.00
2022-08-28T01:14:19.872Z,1.87
2022-08-28T01:16:48.693Z,1.90
2022-08-28T01:19:18.225Z,1.77
2022-08-28T01:21:58.168Z,2.03
2022-08-28T01:24:24.770Z,1.70
2022-08-28T01:26:51.075Z,1.73
2022-08-28T01:29:17.427Z,1.60
2022-08-28T01:31:43.783Z,2.07
2022-08-28T01:34:12.793Z,1.60
2022-08-28T01:36:39.241Z,1.90
2022-08-28T01:39:11.307Z,1.80
2022-08-28T01:41:38.368Z,1.63
2022-08-28T01:44:06.125Z,1.90
2022-08-28T01:46:32.566Z,2.20
2022-08-28T01:49:00.140Z,1.73
2022-08-28T01:51:27.012Z,1.70
2022-08-28T01:53:53.316Z,1.80
2022-08-28T01:56:19.963Z,1.60
2022-08-28T01:58:48.021Z,2.13
2022-08-28T02:01:16.226Z,2.07
2022-08-28T02:03:45.963Z,1.67
2022-08-28T02:06:12.389Z,1.90
2022-08-28T02:08:38.712Z,2.07
2022-08-28T02:11:06.222Z,2.00
2022-08-28T02:13:32.697Z,1.90
2022-08-28T02:15:59.009Z,2.47
2022-08-28T02:18:25.463Z,1.77
2022-08-28T02:20:51.748Z,1.77
2022-08-28T02:23:18.160Z,1.87
2022-08-28T02:25:44.539Z,1.67
2022-08-28T02:28:10.998Z,1.97
2022-08-28T02:30:37.734Z,1.80
2022-08-28T02:33:04.040Z,1.70
2022-08-28T02:35:31.195Z,1.53
2022-08-28T02:37:57.765Z,1.87
2022-08-28T02:40:27.211Z,1.90
2022-08-28T02:42:54.047Z,1.80
2022-08-28T02:45:20.400Z,1.83
2022-08-28T02:47:47.604Z,1.70
2022-08-28T02:50:16.532Z,1.50
2022-08-28T02:52:42.983Z,1.60
2022-08-28T02:55:10.769Z,1.80
2022-08-28T02:57:37.154Z,1.70
2022-08-28T03:00:11.608Z,1.90
2022-08-28T03:02:38.209Z,2.00
2022-08-28T03:05:04.804Z,2.07
2022-08-28T03:07:31.109Z,2.63
2022-08-28T03:09:57.374Z,1.70
2022-08-28T03:12:27.201Z,2.23
2022-08-28T03:14:54.244Z,2.23
2022-08-28T03:17:21.985Z,2.13
2022-08-28T03:19:49.983Z,2.87
2022-08-28T03:22:17.268Z,2.00
2022-08-28T03:24:44.882Z,2.40
2022-08-28T03:27:11.380Z,2.00
2022-08-28T03:29:37.769Z,1.83
2022-08-28T03:32:04.113Z,2.10
2022-08-28T03:34:30.464Z,1.97
2022-08-28T03:36:56.945Z,1.83
2022-08-28T03:39:23.231Z,1.87
2022-08-28T03:41:51.380Z,2.00
2022-08-28T03:44:17.639Z,1.70
2022-08-28T03:46:43.942Z,1.90
2022-08-28T03:49:10.232Z,1.90
2022-08-28T03:51:36.580Z,1.87
2022-08-28T03:54:04.194Z,1.90
2022-08-28T03:56:30.835Z,1.90
2022-08-28T03:58:58.955Z,1.80
2022-08-28T04:01:25.706Z,1.80
2022-08-28T04:03:52.012Z,2.00
2022-08-28T04:06:19.740Z,1.90
2022-08-28T04:08:46.459Z,1.90
2022-08-28T04:11:13.128Z,2.77
2022-08-28T04:13:39.497Z,2.37
2022-08-28T04:16:10.367Z,2.40
2022-08-28T04:18:37.793Z,2.70
2022-08-28T04:21:07.805Z,2.50
2022-08-28T04:23:34.860Z,2.53
2022-08-28T04:26:01.140Z,2.87
2022-08-28T04:28:27.513Z,2.67
2022-08-28T04:30:54.536Z,2.50
2022-08-28T04:33:24.605Z,3.20
2022-08-28T04:35:50.924Z,3.00
2022-08-28T04:38:17.244Z,2.90
2022-08-28T04:40:43.656Z,3.30
2022-08-28T04:43:10.029Z,3.00
2022-08-28T04:45:54.779Z,3.23
2022-08-28T04:48:21.101Z,3.03
2022-08-28T04:50:48.349Z,3.30
2022-08-28T04:53:16.985Z,2.97
2022-08-28T04:55:53.825Z,3.50
2022-08-28T04:58:24.179Z,3.43
2022-08-28T05:00:51.606Z,3.00
2022-08-28T05:03:18.007Z,3.47
2022-08-28T05:05:45.256Z,3.53
2022-08-28T05:08:12.322Z,3.00
2022-08-28T05:10:40.169Z,3.10
2022-08-28T05:13:08.160Z,3.23
2022-08-28T05:15:38.156Z,3.27
2022-08-28T05:18:04.557Z,3.30
2022-08-28T05:20:34.332Z,3.47
2022-08-28T05:23:00.616Z,3.60
2022-08-28T05:25:26.885Z,3.60
2022-08-28T05:27:53.161Z,3.23
2022-08-28T05:30:19.441Z,3.57
2022-08-28T05:32:45.744Z,3.50
2022-08-28T05:35:12.489Z,3.57
2022-08-28T05:37:39.172Z,3.37
2022-08-28T05:40:05.747Z,3.20
2022-08-28T05:42:34.859Z,3.30
2022-08-28T05:45:06.335Z,3.70
2022-08-28T05:47:32.753Z,3.77
2022-08-28T05:49:59.117Z,4.80
2022-08-28T05:52:25.692Z,4.83
2022-08-28T05:54:52.448Z,3.80
2022-08-28T05:57:18.700Z,3.70
2022-08-28T05:59:44.952Z,3.40
2022-08-28T06:02:11.251Z,3.40
2022-08-28T06:04:40.381Z,3.60
2022-08-28T06:07:06.853Z,3.53
2022-08-28T06:09:33.143Z,4.07
2022-08-28T06:12:02.251Z,4.50
2022-08-28T06:14:29.620Z,3.60
2022-08-28T06:16:56.088Z,3.50
2022-08-28T06:19:23.561Z,3.40
2022-08-28T06:21:52.494Z,3.93
2022-08-28T06:24:19.154Z,3.77
2022-08-28T06:26:45.901Z,3.60
2022-08-28T06:29:13.682Z,3.60
2022-08-28T06:31:40.359Z,3.73
2022-08-28T06:34:07.121Z,3.50
2022-08-28T06:36:34.479Z,5.00
2022-08-28T06:39:01.737Z,6.50
2022-08-28T06:41:28.426Z,4.00
2022-08-28T06:43:55.087Z,3.70
2022-08-28T06:46:22.090Z,3.70
2022-08-28T06:48:48.407Z,3.67
2022-08-28T06:51:14.932Z,3.87
2022-08-28T06:53:42.849Z,3.70
2022-08-28T06:56:11.427Z,4.17
2022-08-28T06:58:41.588Z,3.60
2022-08-28T07:01:10.471Z,3.80
2022-08-28T07:03:42.714Z,3.90
2022-08-28T07:06:11.760Z,3.97
2022-08-28T07:08:38.739Z,4.17
2022-08-28T07:11:10.999Z,4.00
2022-08-28T07:13:37.260Z,3.67
2022-08-28T07:16:03.600Z,3.53
2022-08-28T07:18:30.181Z,4.07
2022-08-28T07:20:57.556Z,4.07
2022-08-28T07:23:24.345Z,4.00
2022-08-28T07:25:50.755Z,4.30
2022-08-28T07:28:17.898Z,3.67
2022-08-28T07:30:44.699Z,6.17
2022-08-28T07:33:10.983Z,8.93
2022-08-28T07:35:37.269Z,5.77
2022-08-28T07:38:03.549Z,3.63
2022-08-28T07:40:31.024Z,3.90
2022-08-28T07:43:16.029Z,3.27
2022-08-28T07:45:42.873Z,3.40
2022-08-28T07:48:11.488Z,3.73
2022-08-28T07:50:38.028Z,3.63
2022-08-28T07:53:04.415Z,3.10
2022-08-28T07:55:31.682Z,3.40
2022-08-28T07:57:58.043Z,3.23
2022-08-28T08:00:24.426Z,3.60
2022-08-28T08:02:50.899Z,3.07
2022-08-28T08:05:17.317Z,8.33
2022-08-28T08:07:43.939Z,3.43
2022-08-28T08:10:14.915Z,3.00
2022-08-28T08:12:46.317Z,2.93
2022-08-28T08:15:12.939Z,2.97
2022-08-28T08:17:39.328Z,2.80
2022-08-28T08:20:07.156Z,3.00
2022-08-28T08:22:33.777Z,3.20
2022-08-28T08:25:00.585Z,2.90
2022-08-28T08:27:27.345Z,3.30
2022-08-28T08:29:54.693Z,2.90
2022-08-28T08:32:20.969Z,2.77
2022-08-28T08:34:47.398Z,2.77
2022-08-28T08:37:13.780Z,2.93
2022-08-28T08:39:41.772Z,3.03
2022-08-28T08:42:17.404Z,2.70
2022-08-28T08:44:44.548Z,4.70
2022-08-28T08:47:33.834Z,3.20
2022-08-28T08:50:01.620Z,2.87
2022-08-28T08:52:28.973Z,2.80
2022-08-28T08:55:14.975Z,2.80
2022-08-28T08:57:42.361Z,2.70
2022-08-28T09:00:15.720Z,2.50
2022-08-28T09:03:01.576Z,2.67
2022-08-28T09:05:42.440Z,3.10
2022-08-28T09:08:15.612Z,2.80
2022-08-28T09:10:48.172Z,2.90
2022-08-28T09:13:33.138Z,2.40
2022-08-28T09:16:00.511Z,2.50
2022-08-28T09:18:28.567Z,3.20
2022-08-28T09:20:56.911Z,4.30
2022-08-28T09:23:24.717Z,2.60
2022-08-28T09:26:12.562Z,2.93
2022-08-28T09:28:40.696Z,2.83
2022-08-28T09:31:09.040Z,2.93
2022-08-28T09:33:42.048Z,2.57
2022-08-28T09:36:21.169Z,2.80
2022-08-28T09:39:01.912Z,2.50
2022-08-28T09:41:47.896Z,2.33
2022-08-28T09:44:15.248Z,2.50
2022-08-28T09:46:46.040Z,2.53
2022-08-28T09:49:13.258Z,2.40
2022-08-28T09:51:39.946Z,2.63
2022-08-28T09:54:12.919Z,2.97
2022-08-28T09:56:44.757Z,2.93
2022-08-28T09:59:16.223Z,2.07
2022-08-28T10:01:54.799Z,2.43
2022-08-28T10:04:40.067Z,2.40
2022-08-28T10:07:23.956Z,4.30
2022-08-28T10:09:50.204Z,3.50
2022-08-28T10:12:31.928Z,2.57
2022-08-28T10:15:07.481Z,2.17
2022-08-28T10:17:46.166Z,2.27
2022-08-28T10:20:18.910Z,2.60
2022-08-28T10:22:57.101Z,2.60
2022-08-28T10:25:28.881Z,2.03
2022-08-28T10:28:05.943Z,2.20
2022-08-28T10:30:34.398Z,2.50
2022-08-28T10:33:19.556Z,2.30
2022-08-28T10:35:52.519Z,2.50
2022-08-28T10:38:18.875Z,2.53
2022-08-28T10:40:48.160Z,2.70
2022-08-28T10:43:17.450Z,2.30
2022-08-28T10:45:43.868Z,2.30
2022-08-28T10:48:17.353Z,2.37
2022-08-28T10:50:45.837Z,2.73
2022-08-28T10:53:18.058Z,2.50
2022-08-28T10:55:50.510Z,2.70
2022-08-28T10:58:24.887Z,2.30
2022-08-28T11:00:57.111Z,2.35
2022-08-28T11:03:34.505Z,2.20
2022-08-28T11:06:21.915Z,2.00
2022-08-28T11:08:53.252Z,2.10
2022-08-28T11:11:39.489Z,2.30
2022-08-28T11:14:05.857Z,2.00
2022-08-28T11:16:32.185Z,5.68
2022-08-28T11:19:14.271Z,4.60
2022-08-28T11:21:43.879Z,2.65
2022-08-28T11:24:20.548Z,2.47
2022-08-28T11:27:00.284Z,2.15
2022-08-28T11:29:50.140Z,2.05
2022-08-28T11:32:27.834Z,2.70
2022-08-28T11:35:23.313Z,2.15
2022-08-28T11:37:51.296Z,2.30
2022-08-28T11:40:40.772Z,2.40
2022-08-28T11:43:16.504Z,2.30
2022-08-28T11:45:46.561Z,1.90
2022-08-28T11:48:23.221Z,2.58
2022-08-28T11:50:54.400Z,2.08
2022-08-28T11:53:26.921Z,2.25
2022-08-28T11:55:59.304Z,2.08
2022-08-28T11:58:25.542Z,2.45
2022-08-28T12:01:01.442Z,1.85
2022-08-28T12:03:34.325Z,2.00
2022-08-28T12:06:01.346Z,1.90
2022-08-28T12:08:48.911Z,2.00
2022-08-28T12:11:40.969Z,1.77
2022-08-28T12:14:30.079Z,1.70
2022-08-28T12:16:59.447Z,1.90
2022-08-28T12:19:52.508Z,2.17
2022-08-28T12:22:23.471Z,2.08
2022-08-28T12:24:56.592Z,1.83
2022-08-28T12:27:24.028Z,1.88
2022-08-28T12:29:52.556Z,1.80
2022-08-28T12:32:18.886Z,3.13
2022-08-28T12:34:49.925Z,4.93
2022-08-28T12:37:22.455Z,2.30
2022-08-28T12:39:48.817Z,2.15
2022-08-28T12:42:17.520Z,2.13
2022-08-28T12:44:44.237Z,1.90
2022-08-28T12:47:14.829Z,2.03
2022-08-28T12:49:41.132Z,2.00
2022-08-28T12:52:09.305Z,1.90
2022-08-28T12:54:35.667Z,2.10
2022-08-28T12:57:06.345Z,1.77
2022-08-28T12:59:37.509Z,2.05
2022-08-28T13:02:03.913Z,1.85
2022-08-28T13:04:34.354Z,1.60
2022-08-28T13:07:05.873Z,1.60
2022-08-28T13:09:32.503Z,1.75
2022-08-28T13:11:58.884Z,1.70
2022-08-28T13:14:46.030Z,1.70
2022-08-28T13:17:13.269Z,1.88
2022-08-28T13:19:39.620Z,1.70
2022-08-28T13:22:08.540Z,1.80
2022-08-28T13:24:34.820Z,1.98
2022-08-28T13:27:03.762Z,2.95
2022-08-28T13:29:30.182Z,2.05
2022-08-28T13:32:07.972Z,1.85
2022-08-28T13:34:36.068Z,1.80
2022-08-28T13:37:04.273Z,1.70
2022-08-28T13:39:34.790Z,1.75
2022-08-28T13:42:09.033Z,1.60
2022-08-28T13:44:35.312Z,1.40
2022-08-28T13:47:03.660Z,1.42
2022-08-28T13:49:30.018Z,1.60
2022-08-28T13:51:57.873Z,1.60
2022-08-28T13:54:24.362Z,1.92
2022-08-28T13:56:52.399Z,1.40
2022-08-28T13:59:19.760Z,1.73
2022-08-28T14:02:05.140Z,8.77
2022-08-28T14:04:32.229Z,2.88
2022-08-28T14:06:58.523Z,1.70
2022-08-28T14:09:26.956Z,1.73
2022-08-28T14:11:55.257Z,1.83
2022-08-28T14:14:22.841Z,2.03
2022-08-28T14:16:52.368Z,1.73
2022-08-28T14:19:18.920Z,1.70
2022-08-28T14:21:45.263Z,1.50
2022-08-28T14:24:11.794Z,1.67
2022-08-28T14:26:38.643Z,1.60
2022-08-28T14:29:06.701Z,1.80
2022-08-28T14:31:36.759Z,1.50
2022-08-28T14:34:04.236Z,1.45
2022-08-28T14:36:31.721Z,1.55
2022-08-28T14:39:02.798Z,1.63
2022-08-28T14:41:32.080Z,1.65
2022-08-28T14:44:09.052Z,2.00
2022-08-28T14:46:35.934Z,1.88
2022-08-28T14:49:04.360Z,1.77
2022-08-28T14:51:31.625Z,1.80
2022-08-28T14:53:58.665Z,1.50
2022-08-28T14:56:25.075Z,1.63
2022-08-28T14:58:51.517Z,1.60
2022-08-28T15:01:25.060Z,1.33
2022-08-28T15:04:04.055Z,2.00
2022-08-28T15:06:31.269Z,1.67
2022-08-28T15:08:57.796Z,1.63
2022-08-28T15:11:25.192Z,1.58
2022-08-28T15:13:52.339Z,1.55
2022-08-28T15:16:29.905Z,1.80
2022-08-28T15:18:58.016Z,1.55
2022-08-28T15:21:27.315Z,1.60
2022-08-28T15:23:54.834Z,1.70
2022-08-28T15:26:22.768Z,1.50
2022-08-28T15:28:49.545Z,1.65
2022-08-28T15:31:16.239Z,1.70
2022-08-28T15:33:45.384Z,1.60
2022-08-28T15:36:12.343Z,1.50
2022-08-28T15:38:57.372Z,1.75
2022-08-28T15:41:24.425Z,1.60
2022-08-28T15:44:01.010Z,1.70
2022-08-28T15:46:29.034Z,1.40
2022-08-28T15:48:55.672Z,28.77
2022-08-28T15:51:25.850Z,2.97
2022-08-28T15:53:52.739Z,1.92
2022-08-28T15:56:20.005Z,1.67
2022-08-28T15:58:46.385Z,1.77
2022-08-28T16:01:13.074Z,1.90
2022-08-28T16:03:39.453Z,1.58
2022-08-28T16:06:19.856Z,1.48
2022-08-28T16:08:47.037Z,1.58
2022-08-28T16:11:20.703Z,1.45
2022-08-28T16:13:47.195Z,673.13
2022-08-28T16:16:14.063Z,331.45
2022-08-28T16:18:41.033Z,866.97
2022-08-28T16:21:07.410Z,378.10
2022-08-28T16:23:33.964Z,426.75
2022-08-28T16:26:01.713Z,607.65
2022-08-28T16:28:28.201Z,112.95
2022-08-28T16:30:54.576Z,99.03
2022-08-28T16:33:22.142Z,28.10
2022-08-28T16:35:55.111Z,5.90
2022-08-28T16:38:22.552Z,4.45
2022-08-28T16:40:49.212Z,19.95
2022-08-28T16:43:15.642Z,6.50
2022-08-28T16:45:45.976Z,2.63
2022-08-28T16:48:14.275Z,86.60
2022-08-28T16:50:41.721Z,220.55
2022-08-28T16:53:10.988Z,132.27
2022-08-28T16:55:38.269Z,42.92
2022-08-28T16:58:05.272Z,16.67
2022-08-28T17:00:31.621Z,2.83
2022-08-28T17:02:58.196Z,1.95
2022-08-28T17:05:24.985Z,1.77
2022-08-28T17:07:51.892Z,1.20
2022-08-28T17:10:20.070Z,1.40
2022-08-28T17:12:46.410Z,1.30
2022-08-28T17:15:12.733Z,1.30
2022-08-28T17:17:39.316Z,1.40
2022-08-28T17:20:06.002Z,1.48
2022-08-28T17:22:32.391Z,1.40
2022-08-28T17:25:07.372Z,1.40
2022-08-28T17:27:34.141Z,1.35
2022-08-28T17:30:01.554Z,1.30
2022-08-28T17:32:27.851Z,1.42
2022-08-28T17:34:54.227Z,1.40
2022-08-28T17:37:20.830Z,1.40
2022-08-28T17:39:48.072Z,1.40
2022-08-28T17:42:14.361Z,1.40
2022-08-28T17:44:41.085Z,1.60
2022-08-28T17:47:07.374Z,5.00
2022-08-28T17:49:34.264Z,6.40
2022-08-28T17:52:00.546Z,2.47
2022-08-28T17:54:26.908Z,1.67
2022-08-28T17:56:54.305Z,1.50
2022-08-28T17:59:21.380Z,1.50
2022-08-28T18:01:47.738Z,1.73
2022-08-28T18:04:16.260Z,1.77
2022-08-28T18:06:46.410Z,1.70
2022-08-28T18:09:13.220Z,1.77
2022-08-28T18:11:40.196Z,2.10
2022-08-28T18:14:06.725Z,1.90
2022-08-28T18:16:33.620Z,1.60
2022-08-28T18:19:00.948Z,1.98
2022-08-28T18:21:27.909Z,1.40
2022-08-28T18:23:54.474Z,1.38
2022-08-28T18:26:20.958Z,1.25
2022-08-28T18:28:47.424Z,1.33
2022-08-28T18:31:14.025Z,1.40
2022-08-28T18:33:40.824Z,8.25
2022-08-28T18:36:07.825Z,4.20
2022-08-28T18:38:35.127Z,3.30
2022-08-28T18:41:02.736Z,1.67
2022-08-28T18:43:29.300Z,1.70
2022-08-28T18:45:55.891Z,1.40
2022-08-28T18:48:22.480Z,1.47
2022-08-28T18:50:49.915Z,1.30
2022-08-28T18:53:17.010Z,1.20
2022-08-28T18:55:44.002Z,1.40
2022-08-28T18:58:15.110Z,1.23
2022-08-28T19:00:41.923Z,1.50
2022-08-28T19:03:09.181Z,1.73
2022-08-28T19:05:36.077Z,1.40
2022-08-28T19:08:02.405Z,1.63
2022-08-28T19:10:33.966Z,1.60
2022-08-28T19:13:00.974Z,1.57
2022-08-28T19:15:28.114Z,1.40
2022-08-28T19:17:54.412Z,1.67
2022-08-28T19:20:20.738Z,1.90
2022-08-28T19:22:48.578Z,1.60
2022-08-28T19:25:22.331Z,1.83
2022-08-28T19:27:56.355Z,1.67
2022-08-28T19:30:26.024Z,1.50
2022-08-28T19:32:52.602Z,1.47
2022-08-28T19:35:19.056Z,1.80
2022-08-28T19:37:45.519Z,1.70
2022-08-28T19:40:12.731Z,1.70
2022-08-28T19:42:39.158Z,1.90
2022-08-28T19:45:07.164Z,1.80
2022-08-28T19:47:35.423Z,8.80
2022-08-28T19:50:02.267Z,5.93
2022-08-28T19:52:28.627Z,3.33
2022-08-28T19:54:55.507Z,2.30
2022-08-28T19:57:22.009Z,1.60
2022-08-28T19:59:57.776Z,1.90
2022-08-28T20:02:24.098Z,1.80
2022-08-28T20:04:51.104Z,2.10
2022-08-28T20:07:18.813Z,1.70
2022-08-28T20:09:45.241Z,2.10
2022-08-28T20:12:11.675Z,2.13
2022-08-28T20:14:41.377Z,2.00
2022-08-28T20:17:07.674Z,2.17
2022-08-28T20:19:33.984Z,2.17
2022-08-28T20:22:00.334Z,2.17
2022-08-28T20:24:26.890Z,2.07
2022-08-28T20:26:53.335Z,1.67
2022-08-28T20:29:20.182Z,1.60
2022-08-28T20:31:47.838Z,1.80
2022-08-28T20:34:15.533Z,1.73
2022-08-28T20:36:42.060Z,1.77
2022-08-28T20:39:09.300Z,1.80
2022-08-28T20:41:36.856Z,11.07
2022-08-28T20:44:07.629Z,8.53
2022-08-28T20:46:39.841Z,3.10
2022-08-28T20:49:08.260Z,2.40
2022-08-28T20:51:52.625Z,1.60
2022-08-28T20:54:38.764Z,1.83
2022-08-28T20:57:07.542Z,1.90
2022-08-28T20:59:39.642Z,1.70
2022-08-28T21:02:06.784Z,1.70
2022-08-28T21:04:36.700Z,1.83
2022-08-28T21:07:03.851Z,1.50
2022-08-28T21:10:06.217Z,1.80
2022-08-28T21:12:34.754Z,1.73
2022-08-28T21:15:01.213Z,1.47
2022-08-28T21:17:29.424Z,1.80
2022-08-28T21:20:05.731Z,1.60
2022-08-28T21:22:33.041Z,1.80
2022-08-28T21:25:02.265Z,1.93
2022-08-28T21:27:29.413Z,1.60
2022-08-28T21:29:56.765Z,1.93
2022-08-28T21:32:23.052Z,1.60
2022-08-28T21:34:49.313Z,1.97
2022-08-28T21:37:15.949Z,1.70
2022-08-28T21:39:42.268Z,1.80
2022-08-28T21:42:10.216Z,1.90
2022-08-28T21:44:37.359Z,2.10
2022-08-28T21:47:03.970Z,1.80
2022-08-28T21:49:30.340Z,1.90
2022-08-28T21:51:56.638Z,2.00
2022-08-28T21:54:23.024Z,1.83
2022-08-28T21:56:50.600Z,1.87
2022-08-28T21:59:25.265Z,1.87
2022-08-28T22:01:54.852Z,1.80
2022-08-28T22:04:21.149Z,1.90
2022-08-28T22:06:47.425Z,1.97
2022-08-28T22:09:13.740Z,1.93
2022-08-28T22:11:41.249Z,1.80
2022-08-28T22:14:07.561Z,1.80
2022-08-28T22:16:33.890Z,2.00
2022-08-28T22:19:00.320Z,1.97
2022-08-28T22:21:45.837Z,1.50
2022-08-28T22:24:13.215Z,2.13
2022-08-28T22:26:39.756Z,2.20
2022-08-28T22:29:06.035Z,1.73
2022-08-28T22:31:32.373Z,2.10
2022-08-28T22:33:58.721Z,1.90
2022-08-28T22:36:25.016Z,1.90
2022-08-28T22:38:56.166Z,1.87
2022-08-28T22:41:23.264Z,1.73
2022-08-28T22:43:51.195Z,2.23
2022-08-28T22:46:18.760Z,1.80
2022-08-28T22:48:45.911Z,2.00
2022-08-28T22:51:13.469Z,2.23
2022-08-28T22:53:41.070Z,1.53
2022-08-28T22:56:08.054Z,2.00
2022-08-28T22:58:34.646Z,1.80
2022-08-28T23:01:02.023Z,1.83
2022-08-28T23:03:28.723Z,2.00
2022-08-28T23:05:55.134Z,1.80
2022-08-28T23:08:21.437Z,1.80
2022-08-28T23:10:59.096Z,1.80
2022-08-28T23:13:26.115Z,2.13
2022-08-28T23:15:52.501Z,1.70
2022-08-28T23:18:18.828Z,1.97
2022-08-28T23:20:45.120Z,1.93
2022-08-28T23:23:14.223Z,1.97
2022-08-28T23:25:40.535Z,1.90
2022-08-28T23:28:06.805Z,2.00
2022-08-28T23:30:33.468Z,1.87
2022-08-28T23:32:59.739Z,1.90
2022-08-28T23:35:26.045Z,2.00
2022-08-28T23:37:52.356Z,1.90
2022-08-28T23:40:20.955Z,1.90
2022-08-28T23:42:48.788Z,1.70
2022-08-28T23:45:15.848Z,2.17
2022-08-28T23:47:43.281Z,1.50
2022-08-28T23:50:12.460Z,1.67
2022-08-28T23:52:39.192Z,1.80
2022-08-28T23:55:06.485Z,2.00
2022-08-28T23:57:34.317Z,2.07
